sensor_id;sensor_type;location;lat;lon;timestamp;P1;durP1;ratioP1;P2;durP2;ratioP2
21810;SDS011;11067;48.788;9.208;2023-04-10T00:01:37;12.70;;;7.90;;
21810;SDS011;11067;48.788;9.208;2023-04-10T00:04:02;12.38;;;7.93;;
21810;SDS011;11067;48.788;9.208;2023-04-10T00:06:28;12.38;;;7.90;;
21810;SDS011;11067;48.788;9.208;2023-04-10T00:08:55;12.70;;;7.80;;
21810;SDS011;11067;48.788;9.208;2023-04-10T00:11:21;18.37;;;8.43;;
21810;SDS011;11067;48.788;9.208;2023-04-10T00:13:47;14.70;;;7.60;;
21810;SDS011;11067;48.788;9.208;2023-04-10T00:16:12;12.77;;;7.67;;
21810;SDS011;11067;48.788;9.208;2023-04-10T00:18:37;11.85;;;7.72;;
21810;SDS011;11067;48.788;9.208;2023-04-10T00:21:03;12.10;;;7.43;;
21810;SDS011;11067;48.788;9.208;2023-04-10T00:23:29;10.90;;;7.27;;
21810;SDS011;11067;48.788;9.208;2023-04-10T00:25:56;11.07;;;7.53;;
21810;SDS011;11067;48.788;9.208;2023-04-10T00:28:22;13.85;;;7.70;;
21810;SDS011;11067;48.788;9.208;2023-04-10T00:30:47;11.60;;;7.20;;
21810;SDS011;11067;48.788;9.208;2023-04-10T00:33:13;14.90;;;8.80;;
21810;SDS011;11067;48.788;9.208;2023-04-10T00:35:38;12.37;;;7.70;;
21810;SDS011;11067;48.788;9.208;2023-04-10T00:38:04;13.37;;;7.90;;
21810;SDS011;11067;48.788;9.208;2023-04-10T00:40:30;11.73;;;7.10;;
21810;SDS011;11067;48.788;9.208;2023-04-10T00:42:56;9.88;;;6.80;;
21810;SDS011;11067;48.788;9.208;2023-04-10T00:45:22;11.00;;;7.20;;
21810;SDS011;11067;48.788;9.208;2023-04-10T00:47:48;13.80;;;8.10;;
21810;SDS011;11067;48.788;9.208;2023-04-10T00:50:14;11.18;;;7.70;;
21810;SDS011;11067;48.788;9.208;2023-04-10T00:52:40;13.23;;;7.75;;
21810;SDS011;11067;48.788;9.208;2023-04-10T00:55:06;12.23;;;7.75;;
21810;SDS011;11067;48.788;9.208;2023-04-10T00:57:32;13.45;;;8.05;;
21810;SDS011;11067;48.788;9.208;2023-04-10T00:59:59;12.27;;;7.53;;
21810;SDS011;11067;48.788;9.208;2023-04-10T01:02:25;10.90;;;7.27;;
21810;SDS011;11067;48.788;9.208;2023-04-10T01:04:51;12.00;;;7.65;;
21810;SDS011;11067;48.788;9.208;2023-04-10T01:07:34;12.23;;;8.15;;
21810;SDS011;11067;48.788;9.208;2023-04-10T01:10:14;11.87;;;7.50;;
21810;SDS011;11067;48.788;9.208;2023-04-10T01:15:24;11.98;;;7.80;;
21810;SDS011;11067;48.788;9.208;2023-04-10T01:18:06;13.53;;;7.53;;
21810;SDS011;11067;48.788;9.208;2023-04-10T01:20:36;13.68;;;7.80;;
21810;SDS011;11067;48.788;9.208;2023-04-10T01:25:50;13.80;;;8.10;;
21810;SDS011;11067;48.788;9.208;2023-04-10T01:30:44;14.00;;;7.82;;
21810;SDS011;11067;48.788;9.208;2023-04-10T01:33:12;14.15;;;8.18;;
21810;SDS011;11067;48.788;9.208;2023-04-10T01:35:40;12.45;;;8.13;;
21810;SDS011;11067;48.788;9.208;2023-04-10T01:38:07;14.63;;;8.57;;
21810;SDS011;11067;48.788;9.208;2023-04-10T01:40:34;13.55;;;8.45;;
21810;SDS011;11067;48.788;9.208;2023-04-10T01:43:03;14.52;;;8.20;;
21810;SDS011;11067;48.788;9.208;2023-04-10T01:45:30;13.73;;;8.52;;
21810;SDS011;11067;48.788;9.208;2023-04-10T01:47:57;16.90;;;8.52;;
21810;SDS011;11067;48.788;9.208;2023-04-10T01:50:23;13.25;;;8.35;;
21810;SDS011;11067;48.788;9.208;2023-04-10T01:52:51;13.48;;;8.30;;
21810;SDS011;11067;48.788;9.208;2023-04-10T01:55:18;12.45;;;7.72;;
21810;SDS011;11067;48.788;9.208;2023-04-10T01:57:45;12.80;;;7.97;;
21810;SDS011;11067;48.788;9.208;2023-04-10T02:00:14;14.27;;;8.27;;
21810;SDS011;11067;48.788;9.208;2023-04-10T02:02:40;12.90;;;7.70;;
21810;SDS011;11067;48.788;9.208;2023-04-10T02:05:07;12.23;;;7.85;;
21810;SDS011;11067;48.788;9.208;2023-04-10T02:07:49;14.30;;;8.33;;
21810;SDS011;11067;48.788;9.208;2023-04-10T02:10:18;11.95;;;7.78;;
21810;SDS011;11067;48.788;9.208;2023-04-10T02:12:52;12.82;;;7.53;;
21810;SDS011;11067;48.788;9.208;2023-04-10T02:15:20;15.65;;;8.23;;
21810;SDS011;11067;48.788;9.208;2023-04-10T02:17:47;12.48;;;7.90;;
21810;SDS011;11067;48.788;9.208;2023-04-10T02:20:13;12.13;;;8.43;;
21810;SDS011;11067;48.788;9.208;2023-04-10T02:22:41;13.45;;;8.18;;
21810;SDS011;11067;48.788;9.208;2023-04-10T02:25:10;14.45;;;7.95;;
21810;SDS011;11067;48.788;9.208;2023-04-10T02:27:36;12.75;;;8.02;;
21810;SDS011;11067;48.788;9.208;2023-04-10T02:30:03;11.23;;;7.85;;
21810;SDS011;11067;48.788;9.208;2023-04-10T02:32:29;13.75;;;7.78;;
21810;SDS011;11067;48.788;9.208;2023-04-10T02:34:56;14.33;;;8.53;;
21810;SDS011;11067;48.788;9.208;2023-04-10T02:37:22;12.30;;;8.05;;
21810;SDS011;11067;48.788;9.208;2023-04-10T02:39:48;12.23;;;7.72;;
21810;SDS011;11067;48.788;9.208;2023-04-10T02:42:15;12.88;;;7.72;;
21810;SDS011;11067;48.788;9.208;2023-04-10T02:44:41;13.82;;;8.00;;
21810;SDS011;11067;48.788;9.208;2023-04-10T02:47:07;12.98;;;8.43;;
21810;SDS011;11067;48.788;9.208;2023-04-10T02:49:33;12.97;;;8.37;;
21810;SDS011;11067;48.788;9.208;2023-04-10T02:51:59;14.60;;;8.55;;
21810;SDS011;11067;48.788;9.208;2023-04-10T02:54:25;13.77;;;8.33;;
21810;SDS011;11067;48.788;9.208;2023-04-10T02:56:51;12.90;;;8.13;;
21810;SDS011;11067;48.788;9.208;2023-04-10T02:59:16;13.43;;;8.37;;
21810;SDS011;11067;48.788;9.208;2023-04-10T03:01:42;15.27;;;8.77;;
21810;SDS011;11067;48.788;9.208;2023-04-10T03:04:09;15.85;;;8.88;;
21810;SDS011;11067;48.788;9.208;2023-04-10T03:06:35;14.73;;;9.10;;
21810;SDS011;11067;48.788;9.208;2023-04-10T03:09:00;13.70;;;8.60;;
21810;SDS011;11067;48.788;9.208;2023-04-10T03:11:26;13.80;;;8.93;;
21810;SDS011;11067;48.788;9.208;2023-04-10T03:13:51;15.47;;;9.40;;
21810;SDS011;11067;48.788;9.208;2023-04-10T03:16:17;13.07;;;8.75;;
21810;SDS011;11067;48.788;9.208;2023-04-10T03:18:43;12.93;;;8.13;;
21810;SDS011;11067;48.788;9.208;2023-04-10T03:21:09;16.35;;;9.40;;
21810;SDS011;11067;48.788;9.208;2023-04-10T03:23:35;15.05;;;9.02;;
21810;SDS011;11067;48.788;9.208;2023-04-10T03:26:01;14.52;;;8.73;;
21810;SDS011;11067;48.788;9.208;2023-04-10T03:28:28;15.10;;;9.40;;
21810;SDS011;11067;48.788;9.208;2023-04-10T03:30:54;13.73;;;8.63;;
21810;SDS011;11067;48.788;9.208;2023-04-10T03:33:20;13.87;;;8.57;;
21810;SDS011;11067;48.788;9.208;2023-04-10T03:35:46;12.93;;;8.40;;
21810;SDS011;11067;48.788;9.208;2023-04-10T03:38:12;13.95;;;8.55;;
21810;SDS011;11067;48.788;9.208;2023-04-10T03:40:38;13.30;;;8.18;;
21810;SDS011;11067;48.788;9.208;2023-04-10T03:43:03;13.00;;;8.13;;
21810;SDS011;11067;48.788;9.208;2023-04-10T03:45:29;14.65;;;9.23;;
21810;SDS011;11067;48.788;9.208;2023-04-10T03:47:54;14.50;;;8.83;;
21810;SDS011;11067;48.788;9.208;2023-04-10T03:50:20;15.27;;;8.43;;
21810;SDS011;11067;48.788;9.208;2023-04-10T03:52:45;16.97;;;9.40;;
21810;SDS011;11067;48.788;9.208;2023-04-10T03:55:13;13.93;;;8.45;;
21810;SDS011;11067;48.788;9.208;2023-04-10T03:57:42;18.02;;;9.00;;
21810;SDS011;11067;48.788;9.208;2023-04-10T04:00:12;16.60;;;9.48;;
21810;SDS011;11067;48.788;9.208;2023-04-10T04:02:38;15.87;;;8.33;;
21810;SDS011;11067;48.788;9.208;2023-04-10T04:05:04;15.00;;;8.97;;
21810;SDS011;11067;48.788;9.208;2023-04-10T04:07:30;13.47;;;8.50;;
21810;SDS011;11067;48.788;9.208;2023-04-10T04:09:55;15.47;;;9.60;;
21810;SDS011;11067;48.788;9.208;2023-04-10T04:12:21;15.63;;;8.60;;
21810;SDS011;11067;48.788;9.208;2023-04-10T04:14:46;15.27;;;8.98;;
21810;SDS011;11067;48.788;9.208;2023-04-10T04:17:12;14.38;;;8.55;;
21810;SDS011;11067;48.788;9.208;2023-04-10T04:19:37;15.98;;;9.00;;
21810;SDS011;11067;48.788;9.208;2023-04-10T04:22:03;19.20;;;9.27;;
21810;SDS011;11067;48.788;9.208;2023-04-10T04:24:28;18.23;;;10.70;;
21810;SDS011;11067;48.788;9.208;2023-04-10T04:26:54;24.83;;;11.83;;
21810;SDS011;11067;48.788;9.208;2023-04-10T04:29:20;19.77;;;10.57;;
21810;SDS011;11067;48.788;9.208;2023-04-10T04:31:46;22.80;;;10.13;;
21810;SDS011;11067;48.788;9.208;2023-04-10T04:34:11;22.70;;;11.35;;
21810;SDS011;11067;48.788;9.208;2023-04-10T04:36:37;20.40;;;10.40;;
21810;SDS011;11067;48.788;9.208;2023-04-10T04:39:02;22.70;;;11.00;;
21810;SDS011;11067;48.788;9.208;2023-04-10T04:41:28;15.80;;;9.13;;
21810;SDS011;11067;48.788;9.208;2023-04-10T04:43:56;15.33;;;9.07;;
21810;SDS011;11067;48.788;9.208;2023-04-10T04:46:25;18.02;;;9.35;;
21810;SDS011;11067;48.788;9.208;2023-04-10T04:48:51;16.13;;;8.67;;
21810;SDS011;11067;48.788;9.208;2023-04-10T04:51:16;15.57;;;8.80;;
21810;SDS011;11067;48.788;9.208;2023-04-10T04:53:42;16.90;;;8.70;;
21810;SDS011;11067;48.788;9.208;2023-04-10T04:56:07;13.93;;;8.38;;
21810;SDS011;11067;48.788;9.208;2023-04-10T04:58:33;14.13;;;8.38;;
21810;SDS011;11067;48.788;9.208;2023-04-10T05:00:59;14.73;;;8.52;;
21810;SDS011;11067;48.788;9.208;2023-04-10T05:03:25;14.63;;;8.35;;
21810;SDS011;11067;48.788;9.208;2023-04-10T05:05:52;16.00;;;8.77;;
21810;SDS011;11067;48.788;9.208;2023-04-10T05:08:18;13.10;;;8.02;;
21810;SDS011;11067;48.788;9.208;2023-04-10T05:10:44;15.10;;;8.55;;
21810;SDS011;11067;48.788;9.208;2023-04-10T05:13:10;13.77;;;7.82;;
21810;SDS011;11067;48.788;9.208;2023-04-10T05:15:35;14.98;;;8.40;;
21810;SDS011;11067;48.788;9.208;2023-04-10T05:18:01;13.32;;;8.00;;
21810;SDS011;11067;48.788;9.208;2023-04-10T05:20:27;11.65;;;7.72;;
21810;SDS011;11067;48.788;9.208;2023-04-10T05:22:52;12.98;;;8.25;;
21810;SDS011;11067;48.788;9.208;2023-04-10T05:25:18;12.63;;;7.90;;
21810;SDS011;11067;48.788;9.208;2023-04-10T05:27:43;11.97;;;7.73;;
21810;SDS011;11067;48.788;9.208;2023-04-10T05:30:09;11.17;;;7.00;;
21810;SDS011;11067;48.788;9.208;2023-04-10T05:32:35;12.48;;;7.65;;
21810;SDS011;11067;48.788;9.208;2023-04-10T05:35:00;11.10;;;7.33;;
21810;SDS011;11067;48.788;9.208;2023-04-10T05:37:26;11.73;;;7.75;;
21810;SDS011;11067;48.788;9.208;2023-04-10T05:39:51;13.27;;;7.90;;
21810;SDS011;11067;48.788;9.208;2023-04-10T05:42:17;13.60;;;7.77;;
21810;SDS011;11067;48.788;9.208;2023-04-10T05:44:43;11.18;;;7.53;;
21810;SDS011;11067;48.788;9.208;2023-04-10T05:47:09;11.45;;;7.40;;
21810;SDS011;11067;48.788;9.208;2023-04-10T05:49:35;12.37;;;7.83;;
21810;SDS011;11067;48.788;9.208;2023-04-10T05:52:00;12.40;;;7.77;;
21810;SDS011;11067;48.788;9.208;2023-04-10T05:54:26;12.95;;;8.05;;
21810;SDS011;11067;48.788;9.208;2023-04-10T05:56:51;11.32;;;7.18;;
21810;SDS011;11067;48.788;9.208;2023-04-10T05:59:17;12.23;;;7.60;;
21810;SDS011;11067;48.788;9.208;2023-04-10T06:01:42;11.60;;;7.90;;
21810;SDS011;11067;48.788;9.208;2023-04-10T06:04:08;11.88;;;7.93;;
21810;SDS011;11067;48.788;9.208;2023-04-10T06:06:34;13.02;;;8.13;;
21810;SDS011;11067;48.788;9.208;2023-04-10T06:08:59;12.00;;;7.70;;
21810;SDS011;11067;48.788;9.208;2023-04-10T06:11:25;13.20;;;8.10;;
21810;SDS011;11067;48.788;9.208;2023-04-10T06:13:51;11.47;;;7.90;;
21810;SDS011;11067;48.788;9.208;2023-04-10T06:16:16;11.50;;;8.10;;
21810;SDS011;11067;48.788;9.208;2023-04-10T06:18:42;12.90;;;8.13;;
21810;SDS011;11067;48.788;9.208;2023-04-10T06:21:08;13.98;;;8.77;;
21810;SDS011;11067;48.788;9.208;2023-04-10T06:23:33;11.95;;;7.95;;
21810;SDS011;11067;48.788;9.208;2023-04-10T06:25:59;12.68;;;8.35;;
21810;SDS011;11067;48.788;9.208;2023-04-10T06:28:25;13.93;;;8.85;;
21810;SDS011;11067;48.788;9.208;2023-04-10T06:30:51;12.18;;;7.90;;
21810;SDS011;11067;48.788;9.208;2023-04-10T06:33:16;12.73;;;8.55;;
21810;SDS011;11067;48.788;9.208;2023-04-10T06:35:42;13.63;;;8.70;;
21810;SDS011;11067;48.788;9.208;2023-04-10T06:38:07;13.43;;;8.87;;
21810;SDS011;11067;48.788;9.208;2023-04-10T06:40:33;14.63;;;8.10;;
21810;SDS011;11067;48.788;9.208;2023-04-10T06:42:59;13.57;;;8.03;;
21810;SDS011;11067;48.788;9.208;2023-04-10T06:45:25;14.60;;;8.68;;
21810;SDS011;11067;48.788;9.208;2023-04-10T06:47:51;16.40;;;8.65;;
21810;SDS011;11067;48.788;9.208;2023-04-10T06:50:17;13.85;;;8.30;;
21810;SDS011;11067;48.788;9.208;2023-04-10T06:52:43;15.43;;;8.75;;
21810;SDS011;11067;48.788;9.208;2023-04-10T06:55:09;12.17;;;7.90;;
21810;SDS011;11067;48.788;9.208;2023-04-10T06:57:36;13.77;;;8.25;;
21810;SDS011;11067;48.788;9.208;2023-04-10T07:00:02;12.50;;;8.20;;
21810;SDS011;11067;48.788;9.208;2023-04-10T07:02:28;11.48;;;7.82;;
21810;SDS011;11067;48.788;9.208;2023-04-10T07:04:54;13.00;;;8.57;;
21810;SDS011;11067;48.788;9.208;2023-04-10T07:07:20;13.05;;;8.85;;
21810;SDS011;11067;48.788;9.208;2023-04-10T07:09:46;13.18;;;8.07;;
21810;SDS011;11067;48.788;9.208;2023-04-10T07:12:12;13.75;;;8.50;;
21810;SDS011;11067;48.788;9.208;2023-04-10T07:14:37;12.83;;;8.53;;
21810;SDS011;11067;48.788;9.208;2023-04-10T07:17:03;13.93;;;8.47;;
21810;SDS011;11067;48.788;9.208;2023-04-10T07:19:28;12.93;;;7.75;;
21810;SDS011;11067;48.788;9.208;2023-04-10T07:21:54;11.95;;;8.02;;
21810;SDS011;11067;48.788;9.208;2023-04-10T07:24:20;11.70;;;7.63;;
21810;SDS011;11067;48.788;9.208;2023-04-10T07:26:45;14.07;;;8.05;;
21810;SDS011;11067;48.788;9.208;2023-04-10T07:29:11;13.33;;;8.03;;
21810;SDS011;11067;48.788;9.208;2023-04-10T07:31:38;12.50;;;7.90;;
21810;SDS011;11067;48.788;9.208;2023-04-10T07:34:03;11.23;;;7.57;;
21810;SDS011;11067;48.788;9.208;2023-04-10T07:36:30;10.98;;;7.13;;
21810;SDS011;11067;48.788;9.208;2023-04-10T07:38:56;10.18;;;6.95;;
21810;SDS011;11067;48.788;9.208;2023-04-10T07:41:22;10.00;;;6.10;;
21810;SDS011;11067;48.788;9.208;2023-04-10T07:43:48;9.65;;;6.28;;
21810;SDS011;11067;48.788;9.208;2023-04-10T07:46:14;8.60;;;5.65;;
21810;SDS011;11067;48.788;9.208;2023-04-10T07:48:41;9.38;;;5.80;;
21810;SDS011;11067;48.788;9.208;2023-04-10T07:51:07;8.25;;;5.65;;
21810;SDS011;11067;48.788;9.208;2023-04-10T07:53:36;7.22;;;4.88;;
21810;SDS011;11067;48.788;9.208;2023-04-10T07:56:02;7.75;;;5.13;;
21810;SDS011;11067;48.788;9.208;2023-04-10T07:58:27;7.75;;;4.82;;
21810;SDS011;11067;48.788;9.208;2023-04-10T08:00:53;6.90;;;4.63;;
21810;SDS011;11067;48.788;9.208;2023-04-10T08:03:19;7.37;;;4.70;;
21810;SDS011;11067;48.788;9.208;2023-04-10T08:05:44;7.47;;;4.65;;
21810;SDS011;11067;48.788;9.208;2023-04-10T08:08:10;7.80;;;4.28;;
21810;SDS011;11067;48.788;9.208;2023-04-10T08:10:36;6.77;;;4.23;;
21810;SDS011;11067;48.788;9.208;2023-04-10T08:13:02;6.55;;;3.80;;
21810;SDS011;11067;48.788;9.208;2023-04-10T08:15:28;6.10;;;4.23;;
21810;SDS011;11067;48.788;9.208;2023-04-10T08:17:53;5.50;;;4.00;;
21810;SDS011;11067;48.788;9.208;2023-04-10T08:20:19;6.40;;;4.47;;
21810;SDS011;11067;48.788;9.208;2023-04-10T08:22:45;5.43;;;3.87;;
21810;SDS011;11067;48.788;9.208;2023-04-10T08:25:10;8.17;;;4.27;;
21810;SDS011;11067;48.788;9.208;2023-04-10T08:27:36;5.30;;;3.57;;
21810;SDS011;11067;48.788;9.208;2023-04-10T08:30:02;6.20;;;4.05;;
21810;SDS011;11067;48.788;9.208;2023-04-10T08:32:28;5.20;;;4.00;;
21810;SDS011;11067;48.788;9.208;2023-04-10T08:34:54;6.45;;;3.83;;
21810;SDS011;11067;48.788;9.208;2023-04-10T08:37:20;5.30;;;3.80;;
21810;SDS011;11067;48.788;9.208;2023-04-10T08:39:46;5.70;;;4.22;;
21810;SDS011;11067;48.788;9.208;2023-04-10T08:42:11;4.33;;;3.37;;
21810;SDS011;11067;48.788;9.208;2023-04-10T08:44:37;5.30;;;3.83;;
21810;SDS011;11067;48.788;9.208;2023-04-10T08:47:03;5.10;;;3.63;;
21810;SDS011;11067;48.788;9.208;2023-04-10T08:49:31;6.07;;;3.85;;
21810;SDS011;11067;48.788;9.208;2023-04-10T08:52:06;4.88;;;3.50;;
21810;SDS011;11067;48.788;9.208;2023-04-10T08:54:34;5.15;;;3.65;;
21810;SDS011;11067;48.788;9.208;2023-04-10T08:57:02;4.72;;;3.30;;
21810;SDS011;11067;48.788;9.208;2023-04-10T08:59:30;4.35;;;3.45;;
21810;SDS011;11067;48.788;9.208;2023-04-10T09:01:56;4.47;;;3.05;;
21810;SDS011;11067;48.788;9.208;2023-04-10T09:04:23;4.10;;;3.10;;
21810;SDS011;11067;48.788;9.208;2023-04-10T09:06:49;4.40;;;2.90;;
21810;SDS011;11067;48.788;9.208;2023-04-10T09:09:16;3.88;;;3.05;;
21810;SDS011;11067;48.788;9.208;2023-04-10T09:14:22;3.37;;;2.80;;
21810;SDS011;11067;48.788;9.208;2023-04-10T09:16:50;4.20;;;3.00;;
21810;SDS011;11067;48.788;9.208;2023-04-10T09:19:29;4.60;;;3.10;;
21810;SDS011;11067;48.788;9.208;2023-04-10T09:21:56;3.53;;;2.77;;
21810;SDS011;11067;48.788;9.208;2023-04-10T09:24:22;4.30;;;3.07;;
21810;SDS011;11067;48.788;9.208;2023-04-10T09:26:48;4.57;;;3.42;;
21810;SDS011;11067;48.788;9.208;2023-04-10T09:29:14;3.85;;;2.92;;
21810;SDS011;11067;48.788;9.208;2023-04-10T09:31:41;4.63;;;3.05;;
21810;SDS011;11067;48.788;9.208;2023-04-10T09:34:20;4.15;;;2.88;;
21810;SDS011;11067;48.788;9.208;2023-04-10T09:39:20;4.28;;;2.95;;
21810;SDS011;11067;48.788;9.208;2023-04-10T09:41:49;3.75;;;2.70;;
21810;SDS011;11067;48.788;9.208;2023-04-10T09:44:33;4.17;;;2.67;;
21810;SDS011;11067;48.788;9.208;2023-04-10T09:47:15;3.67;;;2.40;;
21810;SDS011;11067;48.788;9.208;2023-04-10T09:49:45;2.97;;;2.60;;
21810;SDS011;11067;48.788;9.208;2023-04-10T09:52:26;3.37;;;2.63;;
21810;SDS011;11067;48.788;9.208;2023-04-10T09:54:52;3.45;;;2.63;;
21810;SDS011;11067;48.788;9.208;2023-04-10T09:57:19;4.45;;;2.70;;
21810;SDS011;11067;48.788;9.208;2023-04-10T09:59:55;3.72;;;2.60;;
21810;SDS011;11067;48.788;9.208;2023-04-10T10:02:23;3.38;;;2.53;;
21810;SDS011;11067;48.788;9.208;2023-04-10T10:04:49;2.45;;;2.10;;
21810;SDS011;11067;48.788;9.208;2023-04-10T10:07:16;3.80;;;2.63;;
21810;SDS011;11067;48.788;9.208;2023-04-10T10:09:44;3.63;;;2.35;;
21810;SDS011;11067;48.788;9.208;2023-04-10T10:12:11;4.00;;;2.47;;
21810;SDS011;11067;48.788;9.208;2023-04-10T10:14:45;2.30;;;2.10;;
21810;SDS011;11067;48.788;9.208;2023-04-10T10:17:18;2.88;;;2.22;;
21810;SDS011;11067;48.788;9.208;2023-04-10T10:20:02;3.40;;;2.58;;
21810;SDS011;11067;48.788;9.208;2023-04-10T10:22:29;2.78;;;2.35;;
21810;SDS011;11067;48.788;9.208;2023-04-10T10:24:56;3.28;;;2.30;;
21810;SDS011;11067;48.788;9.208;2023-04-10T10:27:24;3.05;;;2.33;;
21810;SDS011;11067;48.788;9.208;2023-04-10T10:29:51;3.35;;;2.03;;
21810;SDS011;11067;48.788;9.208;2023-04-10T10:32:18;6.32;;;2.33;;
21810;SDS011;11067;48.788;9.208;2023-04-10T10:34:45;2.63;;;2.20;;
21810;SDS011;11067;48.788;9.208;2023-04-10T10:37:11;2.75;;;2.22;;
21810;SDS011;11067;48.788;9.208;2023-04-10T10:40:21;3.67;;;2.40;;
21810;SDS011;11067;48.788;9.208;2023-04-10T10:42:41;3.50;;;2.10;;
21810;SDS011;11067;48.788;9.208;2023-04-10T10:45:16;2.53;;;2.10;;
21810;SDS011;11067;48.788;9.208;2023-04-10T10:47:49;3.50;;;2.17;;
21810;SDS011;11067;48.788;9.208;2023-04-10T10:50:16;2.80;;;2.10;;
21810;SDS011;11067;48.788;9.208;2023-04-10T10:52:51;2.88;;;1.92;;
21810;SDS011;11067;48.788;9.208;2023-04-10T10:57:46;2.88;;;2.20;;
21810;SDS011;11067;48.788;9.208;2023-04-10T11:00:13;2.00;;;1.80;;
21810;SDS011;11067;48.788;9.208;2023-04-10T11:02:40;1.90;;;1.63;;
21810;SDS011;11067;48.788;9.208;2023-04-10T11:05:05;1.50;;;1.35;;
21810;SDS011;11067;48.788;9.208;2023-04-10T11:13:28;3.20;;;1.60;;
21810;SDS011;11067;48.788;9.208;2023-04-10T11:15:55;1.95;;;1.60;;
21810;SDS011;11067;48.788;9.208;2023-04-10T11:31:44;1.60;;;1.30;;
21810;SDS011;11067;48.788;9.208;2023-04-10T11:34:11;1.55;;;1.20;;
21810;SDS011;11067;48.788;9.208;2023-04-10T11:36:40;1.40;;;1.30;;
21810;SDS011;11067;48.788;9.208;2023-04-10T11:39:07;2.70;;;1.40;;
21810;SDS011;11067;48.788;9.208;2023-04-10T11:41:37;1.70;;;1.33;;
21810;SDS011;11067;48.788;9.208;2023-04-10T11:44:04;1.85;;;1.50;;
21810;SDS011;11067;48.788;9.208;2023-04-10T11:46:35;1.95;;;1.35;;
21810;SDS011;11067;48.788;9.208;2023-04-10T11:49:02;1.70;;;1.20;;
21810;SDS011;11067;48.788;9.208;2023-04-10T11:51:29;2.00;;;1.40;;
21810;SDS011;11067;48.788;9.208;2023-04-10T11:56:35;1.77;;;1.30;;
21810;SDS011;11067;48.788;9.208;2023-04-10T11:59:02;1.73;;;1.50;;
21810;SDS011;11067;48.788;9.208;2023-04-10T12:01:33;1.45;;;1.10;;
21810;SDS011;11067;48.788;9.208;2023-04-10T12:03:59;1.52;;;1.20;;
21810;SDS011;11067;48.788;9.208;2023-04-10T12:06:25;2.05;;;1.40;;
21810;SDS011;11067;48.788;9.208;2023-04-10T12:08:51;2.15;;;1.40;;
21810;SDS011;11067;48.788;9.208;2023-04-10T12:11:18;1.10;;;1.00;;
21810;SDS011;11067;48.788;9.208;2023-04-10T12:13:45;1.40;;;1.10;;
21810;SDS011;11067;48.788;9.208;2023-04-10T12:16:12;2.13;;;1.07;;
21810;SDS011;11067;48.788;9.208;2023-04-10T12:18:38;1.08;;;0.98;;
21810;SDS011;11067;48.788;9.208;2023-04-10T12:21:04;1.30;;;1.13;;
21810;SDS011;11067;48.788;9.208;2023-04-10T12:23:31;1.30;;;1.00;;
21810;SDS011;11067;48.788;9.208;2023-04-10T12:28:41;0.85;;;0.80;;
21810;SDS011;11067;48.788;9.208;2023-04-10T12:31:14;1.92;;;0.80;;
21810;SDS011;11067;48.788;9.208;2023-04-10T12:33:42;0.77;;;0.70;;
21810;SDS011;11067;48.788;9.208;2023-04-10T12:36:18;1.02;;;0.75;;
21810;SDS011;11067;48.788;9.208;2023-04-10T12:38:45;0.70;;;0.70;;
21810;SDS011;11067;48.788;9.208;2023-04-10T12:41:10;1.03;;;0.80;;
21810;SDS011;11067;48.788;9.208;2023-04-10T12:43:37;1.17;;;0.88;;
21810;SDS011;11067;48.788;9.208;2023-04-10T12:46:05;1.35;;;1.00;;
21810;SDS011;11067;48.788;9.208;2023-04-10T12:48:31;1.17;;;0.70;;
21810;SDS011;11067;48.788;9.208;2023-04-10T12:50:57;0.98;;;0.80;;
21810;SDS011;11067;48.788;9.208;2023-04-10T12:53:23;1.58;;;1.00;;
21810;SDS011;11067;48.788;9.208;2023-04-10T12:55:55;0.90;;;0.82;;
21810;SDS011;11067;48.788;9.208;2023-04-10T12:58:24;0.90;;;0.90;;
21810;SDS011;11067;48.788;9.208;2023-04-10T13:00:52;3.22;;;1.00;;
21810;SDS011;11067;48.788;9.208;2023-04-10T13:03:21;1.23;;;0.98;;
21810;SDS011;11067;48.788;9.208;2023-04-10T13:05:47;1.10;;;1.00;;
21810;SDS011;11067;48.788;9.208;2023-04-10T13:08:13;1.30;;;0.95;;
21810;SDS011;11067;48.788;9.208;2023-04-10T13:10:39;1.10;;;1.00;;
21810;SDS011;11067;48.788;9.208;2023-04-10T13:13:06;1.05;;;0.95;;
21810;SDS011;11067;48.788;9.208;2023-04-10T13:15:32;1.37;;;0.90;;
21810;SDS011;11067;48.788;9.208;2023-04-10T13:18:00;1.30;;;1.10;;
21810;SDS011;11067;48.788;9.208;2023-04-10T13:20:26;1.85;;;1.30;;
21810;SDS011;11067;48.788;9.208;2023-04-10T13:22:52;1.17;;;1.00;;
21810;SDS011;11067;48.788;9.208;2023-04-10T13:25:17;1.52;;;1.15;;
21810;SDS011;11067;48.788;9.208;2023-04-10T13:27:43;1.07;;;0.93;;
21810;SDS011;11067;48.788;9.208;2023-04-10T13:30:08;1.65;;;1.27;;
21810;SDS011;11067;48.788;9.208;2023-04-10T13:32:34;1.60;;;1.15;;
21810;SDS011;11067;48.788;9.208;2023-04-10T13:34:59;2.10;;;1.00;;
21810;SDS011;11067;48.788;9.208;2023-04-10T13:37:25;2.15;;;1.15;;
21810;SDS011;11067;48.788;9.208;2023-04-10T13:39:50;1.20;;;1.10;;
21810;SDS011;11067;48.788;9.208;2023-04-10T13:42:16;1.20;;;1.10;;
21810;SDS011;11067;48.788;9.208;2023-04-10T13:44:41;1.20;;;0.97;;
21810;SDS011;11067;48.788;9.208;2023-04-10T13:47:07;1.73;;;1.10;;
21810;SDS011;11067;48.788;9.208;2023-04-10T13:49:32;1.57;;;1.20;;
21810;SDS011;11067;48.788;9.208;2023-04-10T13:51:58;1.52;;;1.30;;
21810;SDS011;11067;48.788;9.208;2023-04-10T13:54:24;1.20;;;1.00;;
21810;SDS011;11067;48.788;9.208;2023-04-10T13:56:50;1.40;;;1.30;;
21810;SDS011;11067;48.788;9.208;2023-04-10T13:59:18;1.55;;;1.25;;
21810;SDS011;11067;48.788;9.208;2023-04-10T14:01:44;1.75;;;1.30;;
21810;SDS011;11067;48.788;9.208;2023-04-10T14:04:11;1.65;;;1.35;;
21810;SDS011;11067;48.788;9.208;2023-04-10T14:06:37;1.30;;;1.03;;
21810;SDS011;11067;48.788;9.208;2023-04-10T14:09:02;1.27;;;1.17;;
21810;SDS011;11067;48.788;9.208;2023-04-10T14:11:28;2.25;;;1.08;;
21810;SDS011;11067;48.788;9.208;2023-04-10T14:13:53;5.50;;;1.40;;
21810;SDS011;11067;48.788;9.208;2023-04-10T14:16:19;1.33;;;1.23;;
21810;SDS011;11067;48.788;9.208;2023-04-10T14:18:45;1.17;;;1.07;;
21810;SDS011;11067;48.788;9.208;2023-04-10T14:21:10;1.67;;;1.27;;
21810;SDS011;11067;48.788;9.208;2023-04-10T14:23:36;1.73;;;1.20;;
21810;SDS011;11067;48.788;9.208;2023-04-10T14:26:01;2.47;;;1.33;;
21810;SDS011;11067;48.788;9.208;2023-04-10T14:28:29;1.40;;;1.30;;
21810;SDS011;11067;48.788;9.208;2023-04-10T14:30:55;2.10;;;1.20;;
21810;SDS011;11067;48.788;9.208;2023-04-10T14:33:20;2.07;;;1.50;;
21810;SDS011;11067;48.788;9.208;2023-04-10T14:35:46;1.33;;;1.13;;
21810;SDS011;11067;48.788;9.208;2023-04-10T14:38:12;2.33;;;1.50;;
21810;SDS011;11067;48.788;9.208;2023-04-10T14:40:37;1.40;;;1.30;;
21810;SDS011;11067;48.788;9.208;2023-04-10T14:43:06;1.30;;;1.20;;
21810;SDS011;11067;48.788;9.208;2023-04-10T14:45:32;2.50;;;1.40;;
21810;SDS011;11067;48.788;9.208;2023-04-10T14:47:59;3.15;;;1.40;;
21810;SDS011;11067;48.788;9.208;2023-04-10T14:50:24;1.97;;;1.47;;
21810;SDS011;11067;48.788;9.208;2023-04-10T14:52:50;2.45;;;1.50;;
21810;SDS011;11067;48.788;9.208;2023-04-10T14:55:16;1.90;;;1.40;;
21810;SDS011;11067;48.788;9.208;2023-04-10T14:57:42;1.77;;;1.30;;
21810;SDS011;11067;48.788;9.208;2023-04-10T15:00:07;3.00;;;1.20;;
21810;SDS011;11067;48.788;9.208;2023-04-10T15:02:33;1.60;;;1.40;;
21810;SDS011;11067;48.788;9.208;2023-04-10T15:04:59;2.30;;;1.50;;
21810;SDS011;11067;48.788;9.208;2023-04-10T15:07:24;1.70;;;1.40;;
21810;SDS011;11067;48.788;9.208;2023-04-10T15:09:54;1.20;;;1.07;;
21810;SDS011;11067;48.788;9.208;2023-04-10T15:12:21;1.85;;;1.50;;
21810;SDS011;11067;48.788;9.208;2023-04-10T15:14:48;1.88;;;1.40;;
21810;SDS011;11067;48.788;9.208;2023-04-10T15:17:19;1.40;;;1.30;;
21810;SDS011;11067;48.788;9.208;2023-04-10T15:19:46;1.60;;;1.20;;